sensor_id;sensor_type;location;lat;lon;timestamp;P1;P2;P0
62591;PMS5003;48659;41.622;2.276;2022-11-15T00:00:45;20;17;
62591;PMS5003;48659;41.622;2.276;2022-11-15T00:03:14;24;22;
62591;PMS5003;48659;41.622;2.276;2022-11-15T00:05:42;18;17;
62591;PMS5003;48659;41.622;2.276;2022-11-15T00:08:09;22;19;
62591;PMS5003;48659;41.622;2.276;2022-11-15T00:10:37;20;17;
62591;PMS5003;48659;41.622;2.276;2022-11-15T00:13:05;20;19;
62591;PMS5003;48659;41.622;2.276;2022-11-15T00:15:37;21;20;
62591;PMS5003;48659;41.622;2.276;2022-11-15T00:18:06;24;23;
62591;PMS5003;48659;41.622;2.276;2022-11-15T00:20:39;22;19;
62591;PMS5003;48659;41.622;2.276;2022-11-15T00:23:07;22;22;
62591;PMS5003;48659;41.622;2.276;2022-11-15T00:25:34;25;21;
62591;PMS5003;48659;41.622;2.276;2022-11-15T00:28:02;25;24;
62591;PMS5003;48659;41.622;2.276;2022-11-15T00:30:29;21;20;
62591;PMS5003;48659;41.622;2.276;2022-11-15T00:32:57;19;19;
62591;PMS5003;48659;41.622;2.276;2022-11-15T00:35:28;24;21;
62591;PMS5003;48659;41.622;2.276;2022-11-15T00:37:57;21;18;
62591;PMS5003;48659;41.622;2.276;2022-11-15T00:40:24;18;16;
62591;PMS5003;48659;41.622;2.276;2022-11-15T00:42:52;18;18;
62591;PMS5003;48659;41.622;2.276;2022-11-15T00:45:19;22;22;
62591;PMS5003;48659;41.622;2.276;2022-11-15T00:47:47;22;19;
62591;PMS5003;48659;41.622;2.276;2022-11-15T00:50:14;23;18;
62591;PMS5003;48659;41.622;2.276;2022-11-15T00:52:42;23;20;
62591;PMS5003;48659;41.622;2.276;2022-11-15T00:55:12;18;18;
62591;PMS5003;48659;41.622;2.276;2022-11-15T00:57:41;23;23;
62591;PMS5003;48659;41.622;2.276;2022-11-15T01:00:09;17;17;
62591;PMS5003;48659;41.622;2.276;2022-11-15T01:02:37;17;17;
62591;PMS5003;48659;41.622;2.276;2022-11-15T01:05:04;17;17;
62591;PMS5003;48659;41.622;2.276;2022-11-15T01:07:32;21;18;
62591;PMS5003;48659;41.622;2.276;2022-11-15T01:10:16;25;23;
62591;PMS5003;48659;41.622;2.276;2022-11-15T01:12:43;17;17;
62591;PMS5003;48659;41.622;2.276;2022-11-15T01:15:11;18;18;
62591;PMS5003;48659;41.622;2.276;2022-11-15T01:17:38;20;19;
62591;PMS5003;48659;41.622;2.276;2022-11-15T01:20:06;25;20;
62591;PMS5003;48659;41.622;2.276;2022-11-15T01:22:35;23;19;
62591;PMS5003;48659;41.622;2.276;2022-11-15T01:25:03;28;25;
62591;PMS5003;48659;41.622;2.276;2022-11-15T01:27:31;21;20;
62591;PMS5003;48659;41.622;2.276;2022-11-15T01:29:58;23;21;
62591;PMS5003;48659;41.622;2.276;2022-11-15T01:32:26;20;19;
62591;PMS5003;48659;41.622;2.276;2022-11-15T01:34:54;21;21;
62591;PMS5003;48659;41.622;2.276;2022-11-15T01:37:21;28;25;
62591;PMS5003;48659;41.622;2.276;2022-11-15T01:39:48;21;21;
62591;PMS5003;48659;41.622;2.276;2022-11-15T01:42:16;21;20;
62591;PMS5003;48659;41.622;2.276;2022-11-15T01:44:45;24;23;
62591;PMS5003;48659;41.622;2.276;2022-11-15T01:47:15;19;19;
62591;PMS5003;48659;41.622;2.276;2022-11-15T01:49:47;27;22;
62591;PMS5003;48659;41.622;2.276;2022-11-15T01:52:21;22;21;
62591;PMS5003;48659;41.622;2.276;2022-11-15T01:54:52;21;21;
62591;PMS5003;48659;41.622;2.276;2022-11-15T01:57:23;18;17;
62591;PMS5003;48659;41.622;2.276;2022-11-15T01:59:50;22;22;
62591;PMS5003;48659;41.622;2.276;2022-11-15T02:02:18;20;20;
62591;PMS5003;48659;41.622;2.276;2022-11-15T02:04:45;19;19;
62591;PMS5003;48659;41.622;2.276;2022-11-15T02:07:15;19;17;
62591;PMS5003;48659;41.622;2.276;2022-11-15T02:09:45;17;17;
62591;PMS5003;48659;41.622;2.276;2022-11-15T02:12:13;18;17;
62591;PMS5003;48659;41.622;2.276;2022-11-15T02:14:44;22;20;
62591;PMS5003;48659;41.622;2.276;2022-11-15T02:17:20;20;17;
62591;PMS5003;48659;41.622;2.276;2022-11-15T02:20:06;21;20;
62591;PMS5003;48659;41.622;2.276;2022-11-15T02:22:56;24;22;
62591;PMS5003;48659;41.622;2.276;2022-11-15T02:25:39;16;14;
62591;PMS5003;48659;41.622;2.276;2022-11-15T02:28:53;18;17;
62591;PMS5003;48659;41.622;2.276;2022-11-15T02:31:26;25;25;
62591;PMS5003;48659;41.622;2.276;2022-11-15T02:34:00;28;22;
62591;PMS5003;48659;41.622;2.276;2022-11-15T02:36:34;20;17;
62591;PMS5003;48659;41.622;2.276;2022-11-15T02:39:08;17;17;
62591;PMS5003;48659;41.622;2.276;2022-11-15T02:41:45;27;23;
62591;PMS5003;48659;41.622;2.276;2022-11-15T02:44:16;22;21;
62591;PMS5003;48659;41.622;2.276;2022-11-15T02:46:48;25;25;
62591;PMS5003;48659;41.622;2.276;2022-11-15T02:49:18;28;26;
62591;PMS5003;48659;41.622;2.276;2022-11-15T02:51:47;20;19;
62591;PMS5003;48659;41.622;2.276;2022-11-15T02:54:19;23;23;
62591;PMS5003;48659;41.622;2.276;2022-11-15T02:56:49;26;26;
62591;PMS5003;48659;41.622;2.276;2022-11-15T02:59:23;29;26;
62591;PMS5003;48659;41.622;2.276;2022-11-15T03:02:06;26;22;
62591;PMS5003;48659;41.622;2.276;2022-11-15T03:04:47;23;23;
62591;PMS5003;48659;41.622;2.276;2022-11-15T03:07:24;27;24;
62591;PMS5003;48659;41.622;2.276;2022-11-15T03:09:57;26;23;
62591;PMS5003;48659;41.622;2.276;2022-11-15T03:12:40;27;25;
62591;PMS5003;48659;41.622;2.276;2022-11-15T03:15:14;34;31;
62591;PMS5003;48659;41.622;2.276;2022-11-15T03:17:49;29;29;
62591;PMS5003;48659;41.622;2.276;2022-11-15T03:20:21;29;26;
62591;PMS5003;48659;41.622;2.276;2022-11-15T03:22:52;35;31;
62591;PMS5003;48659;41.622;2.276;2022-11-15T03:30:05;26;24;
62591;PMS5003;48659;41.622;2.276;2022-11-15T03:32:35;29;24;
62591;PMS5003;48659;41.622;2.276;2022-11-15T03:35:07;28;24;
62591;PMS5003;48659;41.622;2.276;2022-11-15T03:37:39;32;26;
62591;PMS5003;48659;41.622;2.276;2022-11-15T03:40:10;28;25;
62591;PMS5003;48659;41.622;2.276;2022-11-15T03:42:41;32;27;
62591;PMS5003;48659;41.622;2.276;2022-11-15T03:45:14;32;29;
62591;PMS5003;48659;41.622;2.276;2022-11-15T03:47:46;32;26;
62591;PMS5003;48659;41.622;2.276;2022-11-15T03:50:19;31;30;
62591;PMS5003;48659;41.622;2.276;2022-11-15T03:52:48;32;28;
62591;PMS5003;48659;41.622;2.276;2022-11-15T03:55:17;24;24;
62591;PMS5003;48659;41.622;2.276;2022-11-15T03:57:46;27;25;
62591;PMS5003;48659;41.622;2.276;2022-11-15T04:00:17;32;30;
62591;PMS5003;48659;41.622;2.276;2022-11-15T04:02:44;31;28;
62591;PMS5003;48659;41.622;2.276;2022-11-15T04:05:12;30;26;
62591;PMS5003;48659;41.622;2.276;2022-11-15T04:07:39;24;22;
62591;PMS5003;48659;41.622;2.276;2022-11-15T04:10:07;26;23;
62591;PMS5003;48659;41.622;2.276;2022-11-15T04:12:37;32;30;
62591;PMS5003;48659;41.622;2.276;2022-11-15T04:15:07;32;27;
62591;PMS5003;48659;41.622;2.276;2022-11-15T04:17:37;30;27;
62591;PMS5003;48659;41.622;2.276;2022-11-15T04:20:06;31;26;
62591;PMS5003;48659;41.622;2.276;2022-11-15T04:22:35;33;29;
62591;PMS5003;48659;41.622;2.276;2022-11-15T04:25:03;43;36;
62591;PMS5003;48659;41.622;2.276;2022-11-15T04:27:38;37;30;
62591;PMS5003;48659;41.622;2.276;2022-11-15T04:30:06;36;32;
62591;PMS5003;48659;41.622;2.276;2022-11-15T04:32:34;41;32;
62591;PMS5003;48659;41.622;2.276;2022-11-15T04:35:01;27;26;
62591;PMS5003;48659;41.622;2.276;2022-11-15T04:37:29;30;30;
62591;PMS5003;48659;41.622;2.276;2022-11-15T04:39:57;40;36;
62591;PMS5003;48659;41.622;2.276;2022-11-15T04:42:24;35;31;
62591;PMS5003;48659;41.622;2.276;2022-11-15T04:44:51;30;28;
62591;PMS5003;48659;41.622;2.276;2022-11-15T04:47:18;33;30;
62591;PMS5003;48659;41.622;2.276;2022-11-15T04:49:46;33;28;
62591;PMS5003;48659;41.622;2.276;2022-11-15T04:52:13;37;30;
62591;PMS5003;48659;41.622;2.276;2022-11-15T04:54:41;34;32;
62591;PMS5003;48659;41.622;2.276;2022-11-15T04:57:08;35;32;
62591;PMS5003;48659;41.622;2.276;2022-11-15T04:59:36;30;28;
62591;PMS5003;48659;41.622;2.276;2022-11-15T05:02:03;35;30;
62591;PMS5003;48659;41.622;2.276;2022-11-15T05:04:38;35;32;
62591;PMS5003;48659;41.622;2.276;2022-11-15T05:07:05;36;35;
62591;PMS5003;48659;41.622;2.276;2022-11-15T05:09:32;36;30;
62591;PMS5003;48659;41.622;2.276;2022-11-15T05:12:00;31;26;
62591;PMS5003;48659;41.622;2.276;2022-11-15T05:14:28;34;31;
62591;PMS5003;48659;41.622;2.276;2022-11-15T05:16:56;32;30;
62591;PMS5003;48659;41.622;2.276;2022-11-15T05:19:23;34;31;
62591;PMS5003;48659;41.622;2.276;2022-11-15T05:21:51;31;28;
62591;PMS5003;48659;41.622;2.276;2022-11-15T05:24:19;35;27;
62591;PMS5003;48659;41.622;2.276;2022-11-15T05:26:47;28;25;
62591;PMS5003;48659;41.622;2.276;2022-11-15T05:29:14;32;27;
62591;PMS5003;48659;41.622;2.276;2022-11-15T05:31:42;33;30;
62591;PMS5003;48659;41.622;2.276;2022-11-15T05:34:09;36;30;
62591;PMS5003;48659;41.622;2.276;2022-11-15T05:36:38;31;27;
62591;PMS5003;48659;41.622;2.276;2022-11-15T05:39:08;32;25;
62591;PMS5003;48659;41.622;2.276;2022-11-15T05:41:36;28;27;
62591;PMS5003;48659;41.622;2.276;2022-11-15T05:44:09;26;26;
62591;PMS5003;48659;41.622;2.276;2022-11-15T05:46:40;27;25;
62591;PMS5003;48659;41.622;2.276;2022-11-15T05:49:11;31;27;
62591;PMS5003;48659;41.622;2.276;2022-11-15T05:51:41;34;27;
62591;PMS5003;48659;41.622;2.276;2022-11-15T05:54:12;32;29;
62591;PMS5003;48659;41.622;2.276;2022-11-15T05:56:40;25;24;
62591;PMS5003;48659;41.622;2.276;2022-11-15T05:59:09;27;25;
62591;PMS5003;48659;41.622;2.276;2022-11-15T06:01:37;24;23;
62591;PMS5003;48659;41.622;2.276;2022-11-15T06:04:05;23;23;
62591;PMS5003;48659;41.622;2.276;2022-11-15T06:06:33;31;29;
62591;PMS5003;48659;41.622;2.276;2022-11-15T06:09:00;28;28;
62591;PMS5003;48659;41.622;2.276;2022-11-15T06:11:28;32;30;
62591;PMS5003;48659;41.622;2.276;2022-11-15T06:13:56;28;27;
62591;PMS5003;48659;41.622;2.276;2022-11-15T06:16:23;31;29;
62591;PMS5003;48659;41.622;2.276;2022-11-15T06:18:50;30;27;
62591;PMS5003;48659;41.622;2.276;2022-11-15T06:21:17;43;35;
62591;PMS5003;48659;41.622;2.276;2022-11-15T06:23:44;35;35;
62591;PMS5003;48659;41.622;2.276;2022-11-15T06:26:12;25;25;
62591;PMS5003;48659;41.622;2.276;2022-11-15T06:28:39;28;28;
62591;PMS5003;48659;41.622;2.276;2022-11-15T06:31:08;25;25;
62591;PMS5003;48659;41.622;2.276;2022-11-15T06:33:37;32;28;
62591;PMS5003;48659;41.622;2.276;2022-11-15T06:36:06;26;26;
62591;PMS5003;48659;41.622;2.276;2022-11-15T06:38:38;24;22;
62591;PMS5003;48659;41.622;2.276;2022-11-15T06:41:07;25;24;
62591;PMS5003;48659;41.622;2.276;2022-11-15T06:43:36;21;20;
62591;PMS5003;48659;41.622;2.276;2022-11-15T06:46:04;24;23;
62591;PMS5003;48659;41.622;2.276;2022-11-15T06:48:38;24;21;
62591;PMS5003;48659;41.622;2.276;2022-11-15T06:51:05;22;21;
62591;PMS5003;48659;41.622;2.276;2022-11-15T06:53:33;25;22;
62591;PMS5003;48659;41.622;2.276;2022-11-15T06:56:01;27;25;
62591;PMS5003;48659;41.622;2.276;2022-11-15T06:58:41;23;22;
62591;PMS5003;48659;41.622;2.276;2022-11-15T07:01:09;24;23;
62591;PMS5003;48659;41.622;2.276;2022-11-15T07:03:38;25;24;
62591;PMS5003;48659;41.622;2.276;2022-11-15T07:06:08;21;21;
62591;PMS5003;48659;41.622;2.276;2022-11-15T07:08:36;19;19;
62591;PMS5003;48659;41.622;2.276;2022-11-15T07:11:04;29;25;
62591;PMS5003;48659;41.622;2.276;2022-11-15T07:13:33;25;21;
62591;PMS5003;48659;41.622;2.276;2022-11-15T07:16:02;25;24;
62591;PMS5003;48659;41.622;2.276;2022-11-15T07:18:38;23;19;
62591;PMS5003;48659;41.622;2.276;2022-11-15T07:21:07;25;22;
62591;PMS5003;48659;41.622;2.276;2022-11-15T07:23:36;22;22;
62591;PMS5003;48659;41.622;2.276;2022-11-15T07:26:03;21;21;
62591;PMS5003;48659;41.622;2.276;2022-11-15T07:28:31;22;19;
62591;PMS5003;48659;41.622;2.276;2022-11-15T07:31:01;21;20;
62591;PMS5003;48659;41.622;2.276;2022-11-15T07:33:31;19;19;
62591;PMS5003;48659;41.622;2.276;2022-11-15T07:35:59;23;19;
62591;PMS5003;48659;41.622;2.276;2022-11-15T07:38:27;24;23;
62591;PMS5003;48659;41.622;2.276;2022-11-15T07:40:55;24;22;
62591;PMS5003;48659;41.622;2.276;2022-11-15T07:43:24;18;15;
62591;PMS5003;48659;41.622;2.276;2022-11-15T07:45:51;27;25;
62591;PMS5003;48659;41.622;2.276;2022-11-15T07:48:18;18;16;
62591;PMS5003;48659;41.622;2.276;2022-11-15T07:50:46;20;18;
62591;PMS5003;48659;41.622;2.276;2022-11-15T07:53:14;18;18;
62591;PMS5003;48659;41.622;2.276;2022-11-15T07:55:41;24;21;
62591;PMS5003;48659;41.622;2.276;2022-11-15T07:58:09;22;21;
62591;PMS5003;48659;41.622;2.276;2022-11-15T08:00:37;23;22;
62591;PMS5003;48659;41.622;2.276;2022-11-15T08:03:05;21;19;
62591;PMS5003;48659;41.622;2.276;2022-11-15T08:05:36;24;22;
62591;PMS5003;48659;41.622;2.276;2022-11-15T08:08:04;20;19;
62591;PMS5003;48659;41.622;2.276;2022-11-15T08:10:32;25;23;
62591;PMS5003;48659;41.622;2.276;2022-11-15T08:13:01;27;24;
62591;PMS5003;48659;41.622;2.276;2022-11-15T08:15:30;22;21;
62591;PMS5003;48659;41.622;2.276;2022-11-15T08:18:03;20;20;
62591;PMS5003;48659;41.622;2.276;2022-11-15T08:20:32;23;22;
62591;PMS5003;48659;41.622;2.276;2022-11-15T08:23:00;24;24;
62591;PMS5003;48659;41.622;2.276;2022-11-15T08:25:29;25;25;
62591;PMS5003;48659;41.622;2.276;2022-11-15T08:27:58;22;21;
62591;PMS5003;48659;41.622;2.276;2022-11-15T08:30:29;26;26;
62591;PMS5003;48659;41.622;2.276;2022-11-15T08:33:00;28;25;
62591;PMS5003;48659;41.622;2.276;2022-11-15T08:35:29;19;19;
62591;PMS5003;48659;41.622;2.276;2022-11-15T08:37:56;26;24;
62591;PMS5003;48659;41.622;2.276;2022-11-15T08:40:23;26;26;
62591;PMS5003;48659;41.622;2.276;2022-11-15T08:42:50;26;22;
62591;PMS5003;48659;41.622;2.276;2022-11-15T08:45:17;23;23;
62591;PMS5003;48659;41.622;2.276;2022-11-15T08:47:45;24;22;
62591;PMS5003;48659;41.622;2.276;2022-11-15T08:50:12;30;28;
62591;PMS5003;48659;41.622;2.276;2022-11-15T08:52:39;32;26;
62591;PMS5003;48659;41.622;2.276;2022-11-15T08:55:07;29;28;
62591;PMS5003;48659;41.622;2.276;2022-11-15T08:57:34;34;32;
62591;PMS5003;48659;41.622;2.276;2022-11-15T09:00:03;37;30;
62591;PMS5003;48659;41.622;2.276;2022-11-15T09:02:32;32;31;
62591;PMS5003;48659;41.622;2.276;2022-11-15T09:04:59;36;34;
62591;PMS5003;48659;41.622;2.276;2022-11-15T09:07:26;38;33;
62591;PMS5003;48659;41.622;2.276;2022-11-15T09:09:54;33;32;
62591;PMS5003;48659;41.622;2.276;2022-11-15T09:12:21;38;34;
62591;PMS5003;48659;41.622;2.276;2022-11-15T09:14:49;39;34;
62591;PMS5003;48659;41.622;2.276;2022-11-15T09:17:16;35;31;
62591;PMS5003;48659;41.622;2.276;2022-11-15T09:19:43;32;30;
62591;PMS5003;48659;41.622;2.276;2022-11-15T09:22:10;35;33;
62591;PMS5003;48659;41.622;2.276;2022-11-15T09:24:37;35;33;
62591;PMS5003;48659;41.622;2.276;2022-11-15T09:27:05;38;33;
62591;PMS5003;48659;41.622;2.276;2022-11-15T09:29:33;29;27;
62591;PMS5003;48659;41.622;2.276;2022-11-15T09:32:00;32;29;
62591;PMS5003;48659;41.622;2.276;2022-11-15T09:34:28;33;31;
62591;PMS5003;48659;41.622;2.276;2022-11-15T09:36:55;21;21;
62591;PMS5003;48659;41.622;2.276;2022-11-15T09:39:22;19;18;
62591;PMS5003;48659;41.622;2.276;2022-11-15T09:41:57;25;19;
62591;PMS5003;48659;41.622;2.276;2022-11-15T09:44:37;19;18;
62591;PMS5003;48659;41.622;2.276;2022-11-15T09:47:20;22;21;
62591;PMS5003;48659;41.622;2.276;2022-11-15T09:50:07;14;14;
62591;PMS5003;48659;41.622;2.276;2022-11-15T09:52:38;14;13;
62591;PMS5003;48659;41.622;2.276;2022-11-15T09:55:10;15;15;
62591;PMS5003;48659;41.622;2.276;2022-11-15T09:57:41;10;9;
62591;PMS5003;48659;41.622;2.276;2022-11-15T10:00:18;8;8;
62591;PMS5003;48659;41.622;2.276;2022-11-15T10:02:53;10;10;
62591;PMS5003;48659;41.622;2.276;2022-11-15T10:05:31;9;9;
62591;PMS5003;48659;41.622;2.276;2022-11-15T10:08:06;6;6;
62591;PMS5003;48659;41.622;2.276;2022-11-15T10:10:44;7;6;
62591;PMS5003;48659;41.622;2.276;2022-11-15T10:16:01;5;2;
62591;PMS5003;48659;41.622;2.276;2022-11-15T10:18:38;2;2;
62591;PMS5003;48659;41.622;2.276;2022-11-15T10:21:17;2;0;
62591;PMS5003;48659;41.622;2.276;2022-11-15T10:23:47;2;2;
62591;PMS5003;48659;41.622;2.276;2022-11-15T10:26:17;2;2;
62591;PMS5003;48659;41.622;2.276;2022-11-15T10:28:44;2;2;
62591;PMS5003;48659;41.622;2.276;2022-11-15T10:31:21;3;1;
62591;PMS5003;48659;41.622;2.276;2022-11-15T10:33:49;1;1;
62591;PMS5003;48659;41.622;2.276;2022-11-15T10:36:20;2;2;
62591;PMS5003;48659;41.622;2.276;2022-11-15T10:38:51;0;0;
62591;PMS5003;48659;41.622;2.276;2022-11-15T10:41:21;1;1;
62591;PMS5003;48659;41.622;2.276;2022-11-15T10:44:08;1;1;
62591;PMS5003;48659;41.622;2.276;2022-11-15T10:46:45;2;2;
62591;PMS5003;48659;41.622;2.276;2022-11-15T10:49:14;2;2;
62591;PMS5003;48659;41.622;2.276;2022-11-15T10:51:44;2;2;
62591;PMS5003;48659;41.622;2.276;2022-11-15T10:54:13;1;1;
62591;PMS5003;48659;41.622;2.276;2022-11-15T10:56:49;2;2;
62591;PMS5003;48659;41.622;2.276;2022-11-15T10:59:22;2;2;
62591;PMS5003;48659;41.622;2.276;2022-11-15T11:01:53;3;3;
62591;PMS5003;48659;41.622;2.276;2022-11-15T11:04:21;3;3;
62591;PMS5003;48659;41.622;2.276;2022-11-15T11:06:49;3;2;
62591;PMS5003;48659;41.622;2.276;2022-11-15T11:09:27;2;2;
62591;PMS5003;48659;41.622;2.276;2022-11-15T11:11:58;2;1;
62591;PMS5003;48659;41.622;2.276;2022-11-15T11:14:27;1;1;
62591;PMS5003;48659;41.622;2.276;2022-11-15T11:16:59;1;1;
62591;PMS5003;48659;41.622;2.276;2022-11-15T11:20:07;3;3;
62591;PMS5003;48659;41.622;2.276;2022-11-15T11:22:46;2;2;
62591;PMS5003;48659;41.622;2.276;2022-11-15T11:25:30;2;2;
62591;PMS5003;48659;41.622;2.276;2022-11-15T11:28:09;3;3;
62591;PMS5003;48659;41.622;2.276;2022-11-15T11:30:51;2;2;
62591;PMS5003;48659;41.622;2.276;2022-11-15T11:33:29;1;1;
62591;PMS5003;48659;41.622;2.276;2022-11-15T11:36:03;2;2;
62591;PMS5003;48659;41.622;2.276;2022-11-15T11:38:41;3;3;
62591;PMS5003;48659;41.622;2.276;2022-11-15T11:41:19;2;2;
62591;PMS5003;48659;41.622;2.276;2022-11-15T11:43:59;36;36;
62591;PMS5003;48659;41.622;2.276;2022-11-15T11:46:46;2;2;
62591;PMS5003;48659;41.622;2.276;2022-11-15T11:49:20;2;2;
62591;PMS5003;48659;41.622;2.276;2022-11-15T11:52:00;3;3;
62591;PMS5003;48659;41.622;2.276;2022-11-15T11:54:34;1;1;
62591;PMS5003;48659;41.622;2.276;2022-11-15T11:57:09;2;2;
62591;PMS5003;48659;41.622;2.276;2022-11-15T11:59:46;3;3;
62591;PMS5003;48659;41.622;2.276;2022-11-15T12:02:18;4;2;
62591;PMS5003;48659;41.622;2.276;2022-11-15T12:04:57;1;1;
62591;PMS5003;48659;41.622;2.276;2022-11-15T12:07:35;2;2;
62591;PMS5003;48659;41.622;2.276;2022-11-15T12:10:05;3;2;
62591;PMS5003;48659;41.622;2.276;2022-11-15T12:12:45;5;3;
62591;PMS5003;48659;41.622;2.276;2022-11-15T12:15:20;0;0;
62591;PMS5003;48659;41.622;2.276;2022-11-15T12:17:50;1;1;
62591;PMS5003;48659;41.622;2.276;2022-11-15T12:20:19;2;1;
62591;PMS5003;48659;41.622;2.276;2022-11-15T12:22:52;1;1;
62591;PMS5003;48659;41.622;2.276;2022-11-15T12:25:22;2;2;
62591;PMS5003;48659;41.622;2.276;2022-11-15T12:27:54;1;1;
62591;PMS5003;48659;41.622;2.276;2022-11-15T12:30:27;2;1;
62591;PMS5003;48659;41.622;2.276;2022-11-15T12:33:09;2;2;
62591;PMS5003;48659;41.622;2.276;2022-11-15T12:36:29;1;1;
62591;PMS5003;48659;41.622;2.276;2022-11-15T12:39:08;1;1;
62591;PMS5003;48659;41.622;2.276;2022-11-15T12:41:36;0;0;
62591;PMS5003;48659;41.622;2.276;2022-11-15T12:44:09;1;1;
62591;PMS5003;48659;41.622;2.276;2022-11-15T12:47:43;1;1;
62591;PMS5003;48659;41.622;2.276;2022-11-15T12:50:12;1;1;
62591;PMS5003;48659;41.622;2.276;2022-11-15T12:52:44;1;1;
62591;PMS5003;48659;41.622;2.276;2022-11-15T12:56:08;0;0;
62591;PMS5003;48659;41.622;2.276;2022-11-15T12:58:45;3;2;
62591;PMS5003;48659;41.622;2.276;2022-11-15T13:01:54;3;1;
62591;PMS5003;48659;41.622;2.276;2022-11-15T13:04:27;1;1;
62591;PMS5003;48659;41.622;2.276;2022-11-15T13:06:57;0;0;
62591;PMS5003;48659;41.622;2.276;2022-11-15T13:09:58;0;0;
62591;PMS5003;48659;41.622;2.276;2022-11-15T13:12:59;2;2;
62591;PMS5003;48659;41.622;2.276;2022-11-15T13:15:31;2;2;
62591;PMS5003;48659;41.622;2.276;2022-11-15T13:18:23;1;1;
62591;PMS5003;48659;41.622;2.276;2022-11-15T13:21:23;1;1;
62591;PMS5003;48659;41.622;2.276;2022-11-15T13:23:51;0;0;
62591;PMS5003;48659;41.622;2.276;2022-11-15T13:26:20;2;2;
62591;PMS5003;48659;41.622;2.276;2022-11-15T13:28:49;2;2;
62591;PMS5003;48659;41.622;2.276;2022-11-15T13:31:21;3;2;
62591;PMS5003;48659;41.622;2.276;2022-11-15T13:33:55;1;1;
62591;PMS5003;48659;41.622;2.276;2022-11-15T13:36:25;2;2;
62591;PMS5003;48659;41.622;2.276;2022-11-15T13:38:56;1;1;
62591;PMS5003;48659;41.622;2.276;2022-11-15T13:41:26;2;2;
62591;PMS5003;48659;41.622;2.276;2022-11-15T13:43:55;2;2;
62591;PMS5003;48659;41.622;2.276;2022-11-15T13:46:24;1;1;
62591;PMS5003;48659;41.622;2.276;2022-11-15T13:48:53;4;2;
62591;PMS5003;48659;41.622;2.276;2022-11-15T13:51:25;3;2;
62591;PMS5003;48659;41.622;2.276;2022-11-15T13:54:01;3;1;
62591;PMS5003;48659;41.622;2.276;2022-11-15T13:56:33;2;2;
62591;PMS5003;48659;41.622;2.276;2022-11-15T13:59:07;3;2;
62591;PMS5003;48659;41.622;2.276;2022-11-15T14:01:36;2;2;
62591;PMS5003;48659;41.622;2.276;2022-11-15T14:04:10;2;2;
62591;PMS5003;48659;41.622;2.276;2022-11-15T14:06:43;3;3;
62591;PMS5003;48659;41.622;2.276;2022-11-15T14:09:45;2;2;
62591;PMS5003;48659;41.622;2.276;2022-11-15T14:12:22;2;2;
62591;PMS5003;48659;41.622;2.276;2022-11-15T14:14:52;2;2;
62591;PMS5003;48659;41.622;2.276;2022-11-15T14:17:20;0;0;
62591;PMS5003;48659;41.622;2.276;2022-11-15T14:20:02;1;1;
62591;PMS5003;48659;41.622;2.276;2022-11-15T14:22:52;2;2;
62591;PMS5003;48659;41.622;2.276;2022-11-15T14:25:20;1;1;
62591;PMS5003;48659;41.622;2.276;2022-11-15T14:28:53;1;1;
62591;PMS5003;48659;41.622;2.276;2022-11-15T14:31:21;2;2;
62591;PMS5003;48659;41.622;2.276;2022-11-15T14:33:49;1;1;
62591;PMS5003;48659;41.622;2.276;2022-11-15T14:36:18;2;2;
62591;PMS5003;48659;41.622;2.276;2022-11-15T14:38:47;4;3;
62591;PMS5003;48659;41.622;2.276;2022-11-15T14:41:17;3;3;
62591;PMS5003;48659;41.622;2.276;2022-11-15T14:43:46;2;2;
62591;PMS5003;48659;41.622;2.276;2022-11-15T14:46:14;1;1;
62591;PMS5003;48659;41.622;2.276;2022-11-15T14:48:41;0;0;
62591;PMS5003;48659;41.622;2.276;2022-11-15T14:51:11;1;1;
62591;PMS5003;48659;41.622;2.276;2022-11-15T14:53:40;1;1;
62591;PMS5003;48659;41.622;2.276;2022-11-15T14:56:07;2;2;
62591;PMS5003;48659;41.622;2.276;2022-11-15T14:58:36;2;2;
62591;PMS5003;48659;41.622;2.276;2022-11-15T15:01:09;2;2;
62591;PMS5003;48659;41.622;2.276;2022-11-15T15:03:40;1;1;
62591;PMS5003;48659;41.622;2.276;2022-11-15T15:06:08;2;2;
62591;PMS5003;48659;41.622;2.276;2022-11-15T15:08:39;2;2;
62591;PMS5003;48659;41.622;2.276;2022-11-15T15:11:07;3;2;
62591;PMS5003;48659;41.622;2.276;2022-11-15T15:13:40;2;2;
62591;PMS5003;48659;41.622;2.276;2022-11-15T15:16:07;3;2;
62591;PMS5003;48659;41.622;2.276;2022-11-15T15:18:34;3;2;
62591;PMS5003;48659;41.622;2.276;2022-11-15T15:21:02;2;2;
62591;PMS5003;48659;41.622;2.276;2022-11-15T15:23:30;2;2;
62591;PMS5003;48659;41.622;2.276;2022-11-15T15:25:58;2;2;
62591;PMS5003;48659;41.622;2.276;2022-11-15T15:28:26;2;2;
62591;PMS5003;48659;41.622;2.276;2022-11-15T15:30:54;1;1;
62591;PMS5003;48659;41.622;2.276;2022-11-15T15:33:22;2;2;
62591;PMS5003;48659;41.622;2.276;2022-11-15T15:35:49;1;1;
62591;PMS5003;48659;41.622;2.276;2022-11-15T15:38:17;2;2;
62591;PMS5003;48659;41.622;2.276;2022-11-15T15:40:44;3;3;
62591;PMS5003;48659;41.622;2.276;2022-11-15T15:43:11;2;2;
62591;PMS5003;48659;41.622;2.276;2022-11-15T15:45:39;2;2;
62591;PMS5003;48659;41.622;2.276;2022-11-15T15:48:09;2;2;
62591;PMS5003;48659;41.622;2.276;2022-11-15T15:50:39;3;3;
62591;PMS5003;48659;41.622;2.276;2022-11-15T15:53:06;1;1;
62591;PMS5003;48659;41.622;2.276;2022-11-15T15:55:33;2;2;
62591;PMS5003;48659;41.622;2.276;2022-11-15T15:58:01;2;2;
62591;PMS5003;48659;41.622;2.276;2022-11-15T16:00:29;3;2;
62591;PMS5003;48659;41.622;2.276;2022-11-15T16:02:56;4;3;
62591;PMS5003;48659;41.622;2.276;2022-11-15T16:05:24;2;2;
62591;PMS5003;48659;41.622;2.276;2022-11-15T16:07:52;5;5;
62591;PMS5003;48659;41.622;2.276;2022-11-15T16:10:20;3;3;
62591;PMS5003;48659;41.622;2.276;2022-11-15T16:12:49;5;5;
62591;PMS5003;48659;41.622;2.276;2022-11-15T16:15:17;3;3;
62591;PMS5003;48659;41.622;2.276;2022-11-15T16:17:47;5;4;
62591;PMS5003;48659;41.622;2.276;2022-11-15T16:20:21;5;3;
62591;PMS5003;48659;41.622;2.276;2022-11-15T16:22:56;4;4;
62591;PMS5003;48659;41.622;2.276;2022-11-15T16:25:23;3;3;
62591;PMS5003;48659;41.622;2.276;2022-11-15T16:27:51;3;3;
62591;PMS5003;48659;41.622;2.276;2022-11-15T16:30:20;2;2;
62591;PMS5003;48659;41.622;2.276;2022-11-15T16:32:48;3;3;
62591;PMS5003;48659;41.622;2.276;2022-11-15T16:35:16;4;4;
62591;PMS5003;48659;41.622;2.276;2022-11-15T16:37:43;5;5;
62591;PMS5003;48659;41.622;2.276;2022-11-15T16:40:17;2;2;
62591;PMS5003;48659;41.622;2.276;2022-11-15T16:42:51;4;4;
62591;PMS5003;48659;41.622;2.276;2022-11-15T16:45:19;5;4;
62591;PMS5003;48659;41.622;2.276;2022-11-15T16:47:46;8;6;
62591;PMS5003;48659;41.622;2.276;2022-11-15T16:50:17;4;4;
62591;PMS5003;48659;41.622;2.276;2022-11-15T16:52:47;4;4;
62591;PMS5003;48659;41.622;2.276;2022-11-15T16:55:15;4;4;
62591;PMS5003;48659;41.622;2.276;2022-11-15T16:57:42;4;4;
62591;PMS5003;48659;41.622;2.276;2022-11-15T17:00:10;2;2;
62591;PMS5003;48659;41.622;2.276;2022-11-15T17:02:39;4;4;
62591;PMS5003;48659;41.622;2.276;2022-11-15T17:05:07;4;4;
62591;PMS5003;48659;41.622;2.276;2022-11-15T17:07:34;4;3;